sensor_id;sensor_type;location;lat;lon;timestamp;pressure;altitude;pressure_sealevel;temperature;humidity
23679;BME280;12016;51.668;6.874;2023-02-13T00:03:13;103488.78;;;10.28;69.24
23679;BME280;12016;51.668;6.874;2023-02-13T00:09:15;103496.03;;;10.28;69.15
23679;BME280;12016;51.668;6.874;2023-02-13T00:15:17;103471.97;;;9.93;69.21
23679;BME280;12016;51.668;6.874;2023-02-13T00:21:19;103393.25;;;9.57;69.07
23679;BME280;12016;51.668;6.874;2023-02-13T00:27:20;103477.53;;;10.31;69.79
23679;BME280;12016;51.668;6.874;2023-02-13T00:33:22;103509.13;;;10.36;69.35
23679;BME280;12016;51.668;6.874;2023-02-13T00:39:25;103413.69;;;9.87;69.16
23679;BME280;12016;51.668;6.874;2023-02-13T00:45:27;103237.50;;;8.71;69.22
23679;BME280;12016;51.668;6.874;2023-02-13T00:51:29;103178.84;;;8.28;69.56
23679;BME280;12016;51.668;6.874;2023-02-13T00:57:34;103484.44;;;10.27;69.90
23679;BME280;12016;51.668;6.874;2023-02-13T01:03:37;103482.50;;;10.23;69.75
23679;BME280;12016;51.668;6.874;2023-02-13T01:09:38;103309.63;;;9.02;69.77
23679;BME280;12016;51.668;6.874;2023-02-13T01:15:40;103441.19;;;9.89;69.78
23679;BME280;12016;51.668;6.874;2023-02-13T01:21:42;103356.69;;;9.45;70.23
23679;BME280;12016;51.668;6.874;2023-02-13T01:27:45;103475.72;;;10.20;70.02
23679;BME280;12016;51.668;6.874;2023-02-13T01:33:50;103344.09;;;9.05;69.97
23679;BME280;12016;51.668;6.874;2023-02-13T01:39:55;103179.19;;;8.31;69.68
23679;BME280;12016;51.668;6.874;2023-02-13T01:45:57;103404.97;;;9.80;70.24
23679;BME280;12016;51.668;6.874;2023-02-13T01:52:00;103467.66;;;10.20;70.33
23679;BME280;12016;51.668;6.874;2023-02-13T01:58:14;103466.00;;;10.19;70.32
23679;BME280;12016;51.668;6.874;2023-02-13T02:04:22;103468.56;;;10.14;70.19
23679;BME280;12016;51.668;6.874;2023-02-13T02:10:26;103453.69;;;9.95;70.73
23679;BME280;12016;51.668;6.874;2023-02-13T02:16:28;103440.53;;;9.82;70.90
23679;BME280;12016;51.668;6.874;2023-02-13T02:23:01;103451.19;;;10.05;70.50
23679;BME280;12016;51.668;6.874;2023-02-13T02:42:17;103401.97;;;9.64;70.53
23679;BME280;12016;51.668;6.874;2023-02-13T02:49:02;103448.56;;;9.65;70.20
23679;BME280;12016;51.668;6.874;2023-02-13T02:55:53;103450.00;;;9.84;70.57
23679;BME280;12016;51.668;6.874;2023-02-13T03:01:57;103287.72;;;8.70;70.38
23679;BME280;12016;51.668;6.874;2023-02-13T03:08:19;103349.72;;;9.32;70.22
23679;BME280;12016;51.668;6.874;2023-02-13T03:14:41;103447.66;;;10.04;70.23
23679;BME280;12016;51.668;6.874;2023-02-13T03:21:09;103272.63;;;9.09;69.88
23679;BME280;12016;51.668;6.874;2023-02-13T03:34:05;103328.91;;;8.99;70.54
23679;BME280;12016;51.668;6.874;2023-02-13T03:40:23;103462.53;;;10.07;70.06
23679;BME280;12016;51.668;6.874;2023-02-13T03:46:32;103225.72;;;8.60;69.75
23679;BME280;12016;51.668;6.874;2023-02-13T03:52:44;103454.56;;;10.12;70.20
23679;BME280;12016;51.668;6.874;2023-02-13T03:58:51;103464.81;;;9.98;70.29
23679;BME280;12016;51.668;6.874;2023-02-13T04:05:17;103389.03;;;9.33;70.55
23679;BME280;12016;51.668;6.874;2023-02-13T04:17:34;103459.38;;;9.82;70.78
23679;BME280;12016;51.668;6.874;2023-02-13T04:23:38;103479.47;;;9.91;70.17
23679;BME280;12016;51.668;6.874;2023-02-13T04:29:40;103169.94;;;7.75;69.87
23679;BME280;12016;51.668;6.874;2023-02-13T04:35:41;103478.88;;;9.89;70.05
23679;BME280;12016;51.668;6.874;2023-02-13T04:41:43;103468.91;;;9.61;70.90
23679;BME280;12016;51.668;6.874;2023-02-13T04:47:52;103527.78;;;9.57;70.58
23679;BME280;12016;51.668;6.874;2023-02-13T04:53:54;103304.19;;;8.74;70.29
23679;BME280;12016;51.668;6.874;2023-02-13T04:59:56;103449.84;;;9.62;70.52
23679;BME280;12016;51.668;6.874;2023-02-13T05:05:58;103460.13;;;9.65;70.69
23679;BME280;12016;51.668;6.874;2023-02-13T05:12:00;103458.72;;;9.63;70.82
23679;BME280;12016;51.668;6.874;2023-02-13T05:18:02;103290.47;;;8.47;70.66
23679;BME280;12016;51.668;6.874;2023-02-13T05:24:05;103458.47;;;9.36;70.60
23679;BME280;12016;51.668;6.874;2023-02-13T05:30:07;103459.16;;;9.43;70.64
23679;BME280;12016;51.668;6.874;2023-02-13T05:36:09;103449.56;;;9.47;70.94
23679;BME280;12016;51.668;6.874;2023-02-13T05:42:10;103451.09;;;9.43;71.02
23679;BME280;12016;51.668;6.874;2023-02-13T05:48:12;103445.81;;;9.37;71.30
23679;BME280;12016;51.668;6.874;2023-02-13T05:54:15;103417.81;;;9.09;71.11
23679;BME280;12016;51.668;6.874;2023-02-13T06:00:17;103327.25;;;8.46;71.36
23679;BME280;12016;51.668;6.874;2023-02-13T06:06:19;103449.47;;;9.30;71.37
23679;BME280;12016;51.668;6.874;2023-02-13T06:12:23;103476.41;;;9.19;71.14
23679;BME280;12016;51.668;6.874;2023-02-13T06:18:24;103303.53;;;8.32;71.28
23679;BME280;12016;51.668;6.874;2023-02-13T06:24:26;103445.81;;;9.37;70.65
23679;BME280;12016;51.668;6.874;2023-02-13T06:30:30;103466.88;;;9.40;70.82
23679;BME280;12016;51.668;6.874;2023-02-13T06:36:31;103266.31;;;8.35;70.28
23679;BME280;12016;51.668;6.874;2023-02-13T06:42:33;103284.97;;;8.30;70.88
23679;BME280;12016;51.668;6.874;2023-02-13T06:48:37;103449.91;;;9.39;70.88
23679;BME280;12016;51.668;6.874;2023-02-13T06:54:39;103408.47;;;9.12;70.75
23679;BME280;12016;51.668;6.874;2023-02-13T07:00:52;103462.19;;;9.47;70.60
23679;BME280;12016;51.668;6.874;2023-02-13T07:06:54;103135.97;;;7.11;70.41
23679;BME280;12016;51.668;6.874;2023-02-13T07:12:57;103288.94;;;8.28;70.33
23679;BME280;12016;51.668;6.874;2023-02-13T07:19:06;103465.63;;;9.30;70.53
23679;BME280;12016;51.668;6.874;2023-02-13T07:25:08;103463.03;;;9.24;70.48
23679;BME280;12016;51.668;6.874;2023-02-13T07:31:10;103004.91;;;6.03;70.50
23679;BME280;12016;51.668;6.874;2023-02-13T07:37:12;103488.47;;;8.93;70.72
23679;BME280;12016;51.668;6.874;2023-02-13T07:43:14;103493.47;;;9.13;71.04
23679;BME280;12016;51.668;6.874;2023-02-13T07:49:16;103438.78;;;8.84;71.07
23679;BME280;12016;51.668;6.874;2023-02-13T07:55:18;103482.25;;;9.16;71.15
23679;BME280;12016;51.668;6.874;2023-02-13T08:01:20;103463.44;;;8.69;70.78
23679;BME280;12016;51.668;6.874;2023-02-13T08:07:22;103495.09;;;9.25;70.94
23679;BME280;12016;51.668;6.874;2023-02-13T08:13:24;103499.75;;;9.30;71.21
23679;BME280;12016;51.668;6.874;2023-02-13T08:19:28;103499.63;;;9.37;71.18
23679;BME280;12016;51.668;6.874;2023-02-13T08:25:30;103338.81;;;8.47;71.01
23679;BME280;12016;51.668;6.874;2023-02-13T08:31:31;103279.34;;;8.20;71.24
23679;BME280;12016;51.668;6.874;2023-02-13T08:37:33;103490.00;;;9.52;71.31
23679;BME280;12016;51.668;6.874;2023-02-13T08:43:35;103357.72;;;8.75;70.92
23679;BME280;12016;51.668;6.874;2023-02-13T08:49:37;103495.81;;;9.73;70.78
23679;BME280;12016;51.668;6.874;2023-02-13T08:55:39;103498.34;;;9.79;71.06
23679;BME280;12016;51.668;6.874;2023-02-13T09:01:41;103371.44;;;9.02;70.58
23679;BME280;12016;51.668;6.874;2023-02-13T09:07:43;103197.94;;;8.03;70.16
23679;BME280;12016;51.668;6.874;2023-02-13T09:13:45;103529.66;;;9.97;70.70
23679;BME280;12016;51.668;6.874;2023-02-13T09:19:49;102986.22;;;6.91;69.62
23679;BME280;12016;51.668;6.874;2023-02-13T09:25:51;103313.69;;;9.05;70.05
23679;BME280;12016;51.668;6.874;2023-02-13T09:31:52;103502.13;;;10.35;69.76
23679;BME280;12016;51.668;6.874;2023-02-13T09:37:55;103495.66;;;10.53;69.34
23679;BME280;12016;51.668;6.874;2023-02-13T09:44:03;103093.22;;;8.14;68.50
23679;BME280;12016;51.668;6.874;2023-02-13T09:50:28;103514.69;;;10.80;68.15
23679;BME280;12016;51.668;6.874;2023-02-13T10:09:03;103499.03;;;11.54;66.68
23679;BME280;12016;51.668;6.874;2023-02-13T10:15:15;103501.00;;;11.80;65.21
23679;BME280;12016;51.668;6.874;2023-02-13T10:21:25;103498.16;;;14.12;67.01
23679;BME280;12016;51.668;6.874;2023-02-13T10:27:39;103421.63;;;21.71;42.64
23679;BME280;12016;51.668;6.874;2023-02-13T10:33:51;103477.38;;;25.91;32.32
23679;BME280;12016;51.668;6.874;2023-02-13T10:39:53;103109.06;;;25.99;37.04
23679;BME280;12016;51.668;6.874;2023-02-13T10:46:05;103469.03;;;29.77;30.73
23679;BME280;12016;51.668;6.874;2023-02-13T10:52:36;103409.69;;;30.40;27.52
23679;BME280;12016;51.668;6.874;2023-02-13T11:17:34;103300.75;;;34.20;20.89
23679;BME280;12016;51.668;6.874;2023-02-13T11:23:43;103324.28;;;34.97;19.53
23679;BME280;12016;51.668;6.874;2023-02-13T11:36:07;103320.00;;;36.20;18.38
23679;BME280;12016;51.668;6.874;2023-02-13T11:42:25;103392.25;;;37.02;18.44
23679;BME280;12016;51.668;6.874;2023-02-13T11:48:27;103381.56;;;37.33;17.59
23679;BME280;12016;51.668;6.874;2023-02-13T12:00:39;103306.63;;;37.43;17.42
23679;BME280;12016;51.668;6.874;2023-02-13T12:06:59;103368.91;;;38.10;16.72
23679;BME280;12016;51.668;6.874;2023-02-13T12:13:08;103380.34;;;38.48;16.42
23679;BME280;12016;51.668;6.874;2023-02-13T12:19:23;103368.94;;;38.55;16.41
23679;BME280;12016;51.668;6.874;2023-02-13T12:25:52;103350.69;;;38.43;16.12
23679;BME280;12016;51.668;6.874;2023-02-13T12:38:15;103273.47;;;36.62;17.43
23679;BME280;12016;51.668;6.874;2023-02-13T12:57:03;103306.63;;;35.04;19.15
23679;BME280;12016;51.668;6.874;2023-02-13T13:09:27;103296.94;;;32.60;20.66
23679;BME280;12016;51.668;6.874;2023-02-13T13:22:23;103305.50;;;29.38;24.36
23679;BME280;12016;51.668;6.874;2023-02-13T13:28:55;103304.78;;;28.02;26.43
23679;BME280;12016;51.668;6.874;2023-02-13T13:35:00;103252.34;;;27.06;27.60
23679;BME280;12016;51.668;6.874;2023-02-13T13:41:21;103238.50;;;26.17;28.12
23679;BME280;12016;51.668;6.874;2023-02-13T13:47:53;103188.97;;;25.30;28.89
23679;BME280;12016;51.668;6.874;2023-02-13T14:00:22;103289.13;;;24.78;30.84
23679;BME280;12016;51.668;6.874;2023-02-13T14:07:12;103272.84;;;24.00;32.23
23679;BME280;12016;51.668;6.874;2023-02-13T14:12:59;103271.66;;;23.43;33.00
23679;BME280;12016;51.668;6.874;2023-02-13T14:19:04;103070.41;;;21.89;33.02
23679;BME280;12016;51.668;6.874;2023-02-13T14:25:23;103092.88;;;21.53;34.46
23679;BME280;12016;51.668;6.874;2023-02-13T14:31:38;103253.28;;;23.23;33.38
23679;BME280;12016;51.668;6.874;2023-02-13T14:37:50;103255.28;;;24.04;32.31
23679;BME280;12016;51.668;6.874;2023-02-13T14:43:52;103143.94;;;23.08;32.86
23679;BME280;12016;51.668;6.874;2023-02-13T14:49:58;103112.66;;;21.67;34.26
23679;BME280;12016;51.668;6.874;2023-02-13T14:56:06;103040.91;;;21.18;34.78
23679;BME280;12016;51.668;6.874;2023-02-13T15:08:25;102957.03;;;20.50;35.99
23679;BME280;12016;51.668;6.874;2023-02-13T15:14:35;103228.25;;;22.03;36.19
23679;BME280;12016;51.668;6.874;2023-02-13T15:20:40;102744.91;;;18.59;38.00
23679;BME280;12016;51.668;6.874;2023-02-13T15:26:49;103237.06;;;21.62;38.69
23679;BME280;12016;51.668;6.874;2023-02-13T15:32:59;103231.66;;;21.28;39.34
23679;BME280;12016;51.668;6.874;2023-02-13T15:39:02;103092.25;;;19.49;39.97
23679;BME280;12016;51.668;6.874;2023-02-13T15:45:13;102995.38;;;18.62;40.99
23679;BME280;12016;51.668;6.874;2023-02-13T15:51:21;103225.97;;;19.68;42.29
23679;BME280;12016;51.668;6.874;2023-02-13T15:57:25;103216.63;;;19.15;42.10
23679;BME280;12016;51.668;6.874;2023-02-13T16:03:30;103117.47;;;18.34;42.25
23679;BME280;12016;51.668;6.874;2023-02-13T16:09:34;103158.69;;;18.33;43.30
23679;BME280;12016;51.668;6.874;2023-02-13T16:15:36;103040.41;;;17.24;44.10
23679;BME280;12016;51.668;6.874;2023-02-13T16:21:38;103204.84;;;17.61;44.32
23679;BME280;12016;51.668;6.874;2023-02-13T16:27:45;103210.00;;;17.30;45.22
23679;BME280;12016;51.668;6.874;2023-02-13T16:33:48;103194.28;;;16.89;45.82
23679;BME280;12016;51.668;6.874;2023-02-13T16:39:50;103221.28;;;16.67;46.44
23679;BME280;12016;51.668;6.874;2023-02-13T16:45:52;103224.97;;;16.33;47.38
23679;BME280;12016;51.668;6.874;2023-02-13T16:51:55;103238.34;;;16.06;47.70
23679;BME280;12016;51.668;6.874;2023-02-13T16:58:03;103178.63;;;15.43;48.77
23679;BME280;12016;51.668;6.874;2023-02-13T17:04:22;102961.31;;;13.59;49.81
23679;BME280;12016;51.668;6.874;2023-02-13T17:10:31;103256.97;;;15.26;49.80
23679;BME280;12016;51.668;6.874;2023-02-13T17:16:34;102949.84;;;13.08;50.03
23679;BME280;12016;51.668;6.874;2023-02-13T17:22:39;103161.31;;;13.91;50.55
23679;BME280;12016;51.668;6.874;2023-02-13T17:28:41;103183.00;;;14.02;51.02
23679;BME280;12016;51.668;6.874;2023-02-13T17:34:43;103272.31;;;14.32;51.51
23679;BME280;12016;51.668;6.874;2023-02-13T17:40:47;103140.31;;;13.07;52.20
23679;BME280;12016;51.668;6.874;2023-02-13T17:46:49;103021.28;;;12.31;52.82
23679;BME280;12016;51.668;6.874;2023-02-13T17:52:54;103272.16;;;13.73;52.95
23679;BME280;12016;51.668;6.874;2023-02-13T17:58:56;103273.75;;;13.38;53.90
23679;BME280;12016;51.668;6.874;2023-02-13T18:04:58;103063.91;;;12.09;53.56
23679;BME280;12016;51.668;6.874;2023-02-13T18:11:00;103206.81;;;12.88;54.65
23679;BME280;12016;51.668;6.874;2023-02-13T18:17:02;103191.34;;;12.63;54.83
23679;BME280;12016;51.668;6.874;2023-02-13T18:23:04;103163.13;;;12.29;54.87
23679;BME280;12016;51.668;6.874;2023-02-13T18:29:07;103204.00;;;12.42;55.20
23679;BME280;12016;51.668;6.874;2023-02-13T18:35:10;103097.88;;;11.48;55.94
23679;BME280;12016;51.668;6.874;2023-02-13T18:41:11;102740.50;;;9.24;55.95
23679;BME280;12016;51.668;6.874;2023-02-13T18:47:13;103213.03;;;12.11;56.44
23679;BME280;12016;51.668;6.874;2023-02-13T18:53:15;103063.84;;;10.99;56.84
23679;BME280;12016;51.668;6.874;2023-02-13T18:59:17;103056.19;;;10.86;56.94
23679;BME280;12016;51.668;6.874;2023-02-13T19:05:19;103233.66;;;11.80;57.36
23679;BME280;12016;51.668;6.874;2023-02-13T19:11:21;103250.72;;;11.91;58.04
23679;BME280;12016;51.668;6.874;2023-02-13T19:17:24;103189.81;;;11.36;57.71
23679;BME280;12016;51.668;6.874;2023-02-13T19:23:26;103156.66;;;11.03;58.81
23679;BME280;12016;51.668;6.874;2023-02-13T19:29:29;103066.50;;;10.35;59.00
23679;BME280;12016;51.668;6.874;2023-02-13T19:35:31;103262.25;;;11.49;58.90
23679;BME280;12016;51.668;6.874;2023-02-13T19:41:33;103275.66;;;11.39;59.48
23679;BME280;12016;51.668;6.874;2023-02-13T19:47:35;103297.16;;;11.29;59.35
23679;BME280;12016;51.668;6.874;2023-02-13T19:53:37;102948.22;;;9.15;59.52
23679;BME280;12016;51.668;6.874;2023-02-13T19:59:39;103078.53;;;9.84;59.62
23679;BME280;12016;51.668;6.874;2023-02-13T20:05:41;102974.97;;;9.05;60.35
23679;BME280;12016;51.668;6.874;2023-02-13T20:11:43;103254.63;;;10.65;60.58
23679;BME280;12016;51.668;6.874;2023-02-13T20:17:46;103314.13;;;10.81;60.92
23679;BME280;12016;51.668;6.874;2023-02-13T20:23:52;103080.09;;;9.58;60.68
23679;BME280;12016;51.668;6.874;2023-02-13T20:29:54;103256.50;;;10.65;61.33
23679;BME280;12016;51.668;6.874;2023-02-13T20:36:06;103262.59;;;10.55;61.21
23679;BME280;12016;51.668;6.874;2023-02-13T20:42:09;103256.75;;;10.42;61.20
23679;BME280;12016;51.668;6.874;2023-02-13T20:48:11;103023.28;;;8.83;61.50
23679;BME280;12016;51.668;6.874;2023-02-13T20:54:13;103253.06;;;10.09;61.35
23679;BME280;12016;51.668;6.874;2023-02-13T21:00:15;103165.38;;;9.41;61.05
23679;BME280;12016;51.668;6.874;2023-02-13T21:06:17;103034.44;;;8.58;61.71
23679;BME280;12016;51.668;6.874;2023-02-13T21:12:19;103262.78;;;9.77;61.31
23679;BME280;12016;51.668;6.874;2023-02-13T21:18:21;103265.09;;;9.68;61.73
23679;BME280;12016;51.668;6.874;2023-02-13T21:24:23;103268.44;;;9.58;61.86
23679;BME280;12016;51.668;6.874;2023-02-13T21:30:24;103087.69;;;8.33;62.19
23679;BME280;12016;51.668;6.874;2023-02-13T21:36:27;102966.94;;;7.41;62.37
23679;BME280;12016;51.668;6.874;2023-02-13T21:42:29;103266.22;;;9.10;62.28
23679;BME280;12016;51.668;6.874;2023-02-13T21:48:31;103264.78;;;8.91;62.19
23679;BME280;12016;51.668;6.874;2023-02-13T21:54:33;103060.00;;;7.52;61.52
23679;BME280;12016;51.668;6.874;2023-02-13T22:00:34;103244.47;;;8.43;61.86
23679;BME280;12016;51.668;6.874;2023-02-13T22:06:38;102920.69;;;6.05;61.57
23679;BME280;12016;51.668;6.874;2023-02-13T22:12:40;103244.94;;;8.17;61.65
23679;BME280;12016;51.668;6.874;2023-02-13T22:18:43;103152.31;;;7.44;62.57
23679;BME280;12016;51.668;6.874;2023-02-13T22:24:45;103079.41;;;6.89;62.28
23679;BME280;12016;51.668;6.874;2023-02-13T22:30:49;103000.44;;;6.27;62.46
23679;BME280;12016;51.668;6.874;2023-02-13T22:36:51;103049.75;;;6.19;63.14
23679;BME280;12016;51.668;6.874;2023-02-13T22:42:54;103177.03;;;6.93;63.53
23679;BME280;12016;51.668;6.874;2023-02-13T22:48:57;103136.16;;;6.38;64.64
23679;BME280;12016;51.668;6.874;2023-02-13T22:54:59;103260.38;;;7.45;63.89
23679;BME280;12016;51.668;6.874;2023-02-13T23:01:08;103262.84;;;7.16;64.85
23679;BME280;12016;51.668;6.874;2023-02-13T23:07:11;103256.59;;;7.23;64.25
23679;BME280;12016;51.668;6.874;2023-02-13T23:13:12;103247.94;;;7.09;63.52
23679;BME280;12016;51.668;6.874;2023-02-13T23:19:15;103107.78;;;5.64;63.41
23679;BME280;12016;51.668;6.874;2023-02-13T23:25:17;103294.47;;;6.96;63.29
23679;BME280;12016;51.668;6.874;2023-02-13T23:31:19;102908.22;;;4.60;63.17
23679;BME280;12016;51.668;6.874;2023-02-13T23:37:21;103246.13;;;6.73;63.65
23679;BME280;12016;51.668;6.874;2023-02-13T23:43:22;103254.56;;;6.58;63.46
23679;BME280;12016;51.668;6.874;2023-02-13T23:49:24;103251.44;;;6.61;63.88
23679;BME280;12016;51.668;6.874;2023-02-13T23:55:26;103256.34;;;6.46;64.19
